Time;durP1;ratioP1;P1;durP2;ratioP2;P2;SDS_P1;SDS_P2;PMS_P1;PMS_P2;Temp;Humidity;BMP_temperature;BMP_pressure;BME280_temperature;BME280_humidity;BME280_pressure;Samples;Min_cycle;Max_cycle;Signal;HPM_P1;HPM_P2
2023/12/26 00:01:50;;;;;;;0.50;0.50;;;;;;;8.88;100.00;97581.13;6102712;19;20361;-72
2023/12/26 00:03:50;;;;;;;0.70;0.50;;;;;;;8.87;100.00;97582.28;6104623;19;20006;-72
2023/12/26 00:05:50;;;;;;;0.57;0.57;;;;;;;8.86;100.00;97583.47;6103504;19;20002;-72
2023/12/26 00:07:51;;;;;;;0.50;0.50;;;;;;;8.89;100.00;97579.13;6104577;19;20324;-72
2023/12/26 00:09:51;;;;;;;0.50;0.50;;;;;;;8.92;100.00;97570.88;6103626;19;20372;-72
2023/12/26 00:11:51;;;;;;;0.73;0.60;;;;;;;8.90;100.00;97573.22;6101796;19;20428;-72
2023/12/26 00:13:52;;;;;;;0.50;0.50;;;;;;;8.86;100.00;97564.16;6103172;19;20066;-72
2023/12/26 00:15:52;;;;;;;0.50;0.50;;;;;;;8.84;100.00;97561.00;6102118;19;20015;-72
2023/12/26 00:17:52;;;;;;;0.50;0.50;;;;;;;8.85;100.00;97551.53;6103540;19;20356;-72
2023/12/26 00:19:53;;;;;;;0.70;0.60;;;;;;;8.84;100.00;97561.00;6103857;19;20083;-72
2023/12/26 00:21:53;;;;;;;0.50;0.50;;;;;;;8.86;100.00;97544.06;6102440;19;20530;-72
2023/12/26 00:23:53;;;;;;;0.85;0.60;;;;;;;8.79;100.00;97555.88;6102978;19;20065;-72
2023/12/26 00:25:54;;;;;;;0.47;0.47;;;;;;;8.80;100.00;97562.94;6102590;19;20006;-72
2023/12/26 00:27:54;;;;;;;0.60;0.60;;;;;;;8.80;100.00;97562.16;6103858;19;20380;-72
2023/12/26 00:29:55;;;;;;;0.52;0.50;;;;;;;8.84;100.00;97547.19;6102772;19;20404;-72
2023/12/26 00:31:55;;;;;;;0.70;0.63;;;;;;;8.80;100.00;97554.69;6101887;19;20007;-72
2023/12/26 00:33:56;;;;;;;0.50;0.50;;;;;;;8.72;100.00;97561.34;6103495;19;19999;-72
2023/12/26 00:35:58;;;;;;;0.50;0.50;;;;;;;8.72;100.00;97547.56;6103463;19;20007;-72
2023/12/26 00:38:01;;;;;;;0.50;0.50;;;;;;;8.76;100.00;97537.31;6102564;19;20011;-72
2023/12/26 00:40:03;;;;;;;0.50;0.50;;;;;;;8.73;100.00;97541.66;6102328;19;20006;-72
2023/12/26 00:42:03;;;;;;;0.50;0.50;;;;;;;8.79;100.00;97535.78;6100853;19;20010;-72
2023/12/26 00:44:04;;;;;;;0.50;0.50;;;;;;;8.87;100.00;97529.88;6101669;19;20310;-72
2023/12/26 00:46:04;;;;;;;0.60;0.60;;;;;;;8.86;100.00;97539.34;6101858;19;20478;-72
2023/12/26 00:48:05;;;;;;;0.50;0.50;;;;;;;8.85;100.00;97534.97;6101669;19;19999;-72
2023/12/26 00:50:11;;;;;;;0.50;0.50;;;;;;;8.84;100.00;97533.41;6102644;19;20011;-72
2023/12/26 00:52:11;;;;;;;0.60;0.60;;;;;;;8.87;100.00;97527.13;6101973;19;20006;-72
2023/12/26 00:54:12;;;;;;;0.60;0.60;;;;;;;8.81;100.00;97525.13;6102848;19;20481;-72
2023/12/26 00:56:12;;;;;;;0.85;0.60;;;;;;;8.80;100.00;97524.34;6102064;19;20011;-72
2023/12/26 00:58:13;;;;;;;0.50;0.50;;;;;;;8.84;100.00;97529.84;6102091;19;20087;-72
2023/12/26 01:00:14;;;;;;;0.70;0.68;;;;;;;8.82;100.00;97523.94;6102743;19;20013;-72
2023/12/26 01:02:14;;;;;;;0.60;0.60;;;;;;;8.79;100.00;97511.72;6101350;19;20003;-72
2023/12/26 01:04:15;;;;;;;0.60;0.60;;;;;;;8.81;100.00;97519.63;6102615;19;20014;-72
2023/12/26 01:06:15;;;;;;;0.60;0.60;;;;;;;8.90;100.00;97522.78;6101868;19;20058;-72
2023/12/26 01:08:16;;;;;;;0.73;0.60;;;;;;;8.94;100.00;97529.13;6102117;19;20311;-72
2023/12/26 01:10:16;;;;;;;0.50;0.50;;;;;;;8.93;100.00;97522.78;6102626;19;20002;-72
2023/12/26 01:12:17;;;;;;;0.60;0.50;;;;;;;8.90;100.00;97523.56;6101332;19;20100;-72
2023/12/26 01:14:17;;;;;;;0.63;0.63;;;;;;;8.85;100.00;97523.94;6102045;19;20427;-72
2023/12/26 01:16:19;;;;;;;0.50;0.50;;;;;;;8.89;100.00;97532.25;6102441;19;20044;-72
2023/12/26 01:18:19;;;;;;;0.70;0.70;;;;;;;8.94;100.00;97538.19;6101470;19;20009;-72
2023/12/26 01:20:20;;;;;;;0.90;0.63;;;;;;;8.91;100.00;97525.16;6103087;19;20020;-72
2023/12/26 01:22:20;;;;;;;0.60;0.60;;;;;;;8.88;100.00;97539.75;6100876;19;20599;-72
2023/12/26 01:24:20;;;;;;;0.60;0.60;;;;;;;8.86;100.00;97547.63;6101220;19;20423;-72
2023/12/26 01:26:23;;;;;;;1.95;1.05;;;;;;;8.86;100.00;97531.06;6101192;19;20047;-72
2023/12/26 01:28:23;;;;;;;0.60;0.60;;;;;;;8.90;100.00;97539.34;6102965;19;20293;-72
2023/12/26 01:30:24;;;;;;;0.60;0.60;;;;;;;8.87;100.00;97532.66;6101993;19;20013;-72
2023/12/26 01:32:24;;;;;;;0.50;0.50;;;;;;;8.86;100.00;97517.28;6101899;19;20014;-72
2023/12/26 01:34:25;;;;;;;0.55;0.55;;;;;;;8.81;100.00;97520.41;6102426;19;20466;-72
2023/12/26 01:36:25;;;;;;;0.93;0.65;;;;;;;8.80;100.00;97518.81;6099994;19;20015;-72
2023/12/26 01:38:25;;;;;;;0.40;0.40;;;;;;;8.82;100.00;97515.66;6101729;19;20018;-72
2023/12/26 01:40:26;;;;;;;0.52;0.52;;;;;;;8.86;100.00;97531.06;6102950;19;20014;-72
2023/12/26 01:42:26;;;;;;;0.70;0.70;;;;;;;8.84;100.00;97527.88;6098584;19;20081;-72
2023/12/26 01:44:27;;;;;;;0.40;0.40;;;;;;;8.86;100.00;97520.03;6102957;19;20368;-72
2023/12/26 01:46:27;;;;;;;0.60;0.60;;;;;;;8.87;100.00;97526.34;6101661;19;20045;-72
2023/12/26 01:48:29;;;;;;;0.50;0.50;;;;;;;8.86;100.00;97513.72;6102646;19;20021;-72
2023/12/26 01:50:30;;;;;;;0.90;0.60;;;;;;;8.93;100.00;97520.03;6102934;19;20026;-72
2023/12/26 01:52:30;;;;;;;0.60;0.60;;;;;;;8.90;100.00;97517.28;6100278;19;20015;-72
2023/12/26 01:54:33;;;;;;;0.70;0.70;;;;;;;8.83;100.00;97509.75;6101669;19;20110;-72
2023/12/26 01:56:34;;;;;;;;;;;;;;;8.95;100.00;97519.66;6102450;19;20028;-72
2023/12/26 01:58:35;;;;;;;0.60;0.60;;;;;;;8.95;100.00;97520.44;6101570;19;19911;-72
2023/12/26 02:00:36;;;;;;;0.55;0.55;;;;;;;8.92;100.00;97512.16;6102818;19;20383;-72
2023/12/26 02:02:38;;;;;;;0.50;0.50;;;;;;;8.93;100.00;97520.03;6100918;19;20024;-72
2023/12/26 02:04:38;;;;;;;1.65;0.75;;;;;;;8.93;100.00;97517.28;6101516;19;20336;-72
2023/12/26 02:06:39;;;;;;;1.15;0.60;;;;;;;8.98;100.00;97521.63;6101381;19;20352;-72
2023/12/26 02:08:40;;;;;;;0.60;0.60;;;;;;;8.95;100.00;97519.66;6102094;19;20602;-72
2023/12/26 02:10:41;;;;;;;0.50;0.50;;;;;;;9.01;100.00;97516.09;6100862;19;20014;-72
2023/12/26 02:12:42;;;;;;;0.40;0.40;;;;;;;9.04;100.00;97519.28;6100310;19;20020;-72
2023/12/26 02:14:44;;;;;;;0.50;0.50;;;;;;;9.00;100.00;97520.06;6101074;19;20007;-72
2023/12/26 02:16:46;;;;;;;2.90;0.63;;;;;;;8.95;100.00;97501.13;6102062;19;20037;-72
2023/12/26 02:18:47;;;;;;;1.63;0.60;;;;;;;8.95;100.00;97516.91;6101214;19;20016;-72
2023/12/26 02:20:47;;;;;;;0.80;0.50;;;;;;;9.00;100.00;97513.75;6101510;19;20010;-72
2023/12/26 02:22:48;;;;;;;0.50;0.50;;;;;;;8.99;100.00;97510.19;6100456;19;20058;-72
2023/12/26 02:24:48;;;;;;;0.55;0.55;;;;;;;8.98;100.00;97505.06;6100748;19;20019;-72
2023/12/26 02:26:53;;;;;;;0.80;0.57;;;;;;;8.99;100.00;97501.91;6099018;19;20480;-72
2023/12/26 02:28:55;;;;;;;0.45;0.45;;;;;;;9.03;100.00;97503.91;6101013;19;20011;-72
2023/12/26 02:30:58;;;;;;;0.55;0.55;;;;;;;9.07;100.00;97499.19;6100406;19;20109;-72
2023/12/26 02:33:00;;;;;;;0.40;0.40;;;;;;;8.98;100.00;97496.81;6101437;19;20311;-72
2023/12/26 02:35:02;;;;;;;0.50;0.50;;;;;;;8.93;100.00;97520.03;6100228;19;20020;-72
2023/12/26 02:37:03;;;;;;;0.52;0.52;;;;;;;8.92;100.00;97509.38;6100664;19;20013;-72
2023/12/26 02:39:03;;;;;;;0.40;0.40;;;;;;;8.96;100.00;97508.22;6100109;19;20290;-72
2023/12/26 02:41:04;;;;;;;0.50;0.50;;;;;;;8.89;100.00;97502.69;6100716;19;20355;-72
2023/12/26 02:43:04;;;;;;;0.50;0.50;;;;;;;8.92;100.00;97499.13;6100824;19;20710;-72
2023/12/26 02:45:05;;;;;;;1.25;0.50;;;;;;;8.92;100.00;97507.41;6100193;19;20006;-72
2023/12/26 02:47:06;;;;;;;0.40;0.40;;;;;;;8.88;100.00;97508.59;6099667;19;20087;-72
2023/12/26 02:49:06;;;;;;;0.52;0.52;;;;;;;8.93;100.00;97497.97;6088223;19;20024;-72
2023/12/26 02:51:08;;;;;;;1.33;0.40;;;;;;;8.84;100.00;97503.06;6097004;19;20090;-72
2023/12/26 02:53:08;;;;;;;0.52;0.45;;;;;;;8.83;100.00;97495.19;6100416;19;20113;-72
2023/12/26 02:55:09;;;;;;;0.45;0.45;;;;;;;8.77;100.00;97499.50;6097959;19;20141;-72
2023/12/26 02:57:09;;;;;;;0.70;0.50;;;;;;;8.78;100.00;97506.63;6099803;19;20007;-72
2023/12/26 02:59:09;;;;;;;1.05;0.98;;;;;;;8.72;100.00;97493.19;6098312;19;20006;-72
2023/12/26 03:01:10;;;;;;;0.40;0.40;;;;;;;8.76;100.00;97503.44;6096443;19;20241;-72
2023/12/26 03:03:10;;;;;;;0.50;0.50;;;;;;;8.77;100.00;97496.72;6096772;19;20331;-72
2023/12/26 03:05:10;;;;;;;0.98;0.50;;;;;;;8.75;100.00;97501.84;6096349;19;20320;-72
2023/12/26 03:07:11;;;;;;;0.40;0.40;;;;;;;8.70;100.00;97498.31;6098625;19;20003;-72
2023/12/26 03:09:11;;;;;;;0.40;0.40;;;;;;;8.69;100.00;97498.72;6096231;19;20007;-72
2023/12/26 03:11:11;;;;;;;0.40;0.40;;;;;;;8.73;100.00;97510.53;6098864;19;20388;-72
2023/12/26 03:13:12;;;;;;;0.40;0.40;;;;;;;8.77;100.00;97497.56;6098756;19;20003;-72
2023/12/26 03:15:12;;;;;;;0.40;0.40;;;;;;;8.73;100.00;97505.78;6098324;19;20036;-72
2023/12/26 03:17:12;;;;;;;1.67;0.52;;;;;;;8.72;100.00;97503.44;6097068;19;20010;-72
2023/12/26 03:19:13;;;;;;;0.47;0.47;;;;;;;8.71;100.00;97493.59;6098657;19;20075;-72
2023/12/26 03:21:13;;;;;;;0.40;0.40;;;;;;;8.76;100.00;97506.97;6099222;19;20010;-72
2023/12/26 03:23:13;;;;;;;0.40;0.40;;;;;;;8.75;100.00;97504.63;6098865;19;20418;-72
2023/12/26 03:25:14;;;;;;;0.45;0.45;;;;;;;8.76;100.00;97509.75;6099861;19;20010;-72
2023/12/26 03:27:14;;;;;;;0.30;0.30;;;;;;;8.70;100.00;97514.06;6097905;19;20002;-72
2023/12/26 03:29:15;;;;;;;1.10;0.40;;;;;;;8.69;100.00;97510.53;6099341;19;20403;-72
2023/12/26 03:31:15;;;;;;;0.40;0.40;;;;;;;8.72;100.00;97519.97;6098876;19;20466;-72
2023/12/26 03:33:16;;;;;;;0.30;0.30;;;;;;;8.72;100.00;97523.53;6096396;19;20017;-72
2023/12/26 03:35:16;;;;;;;0.38;0.38;;;;;;;8.72;100.00;97526.28;6099352;19;20007;-72
2023/12/26 03:37:16;;;;;;;0.40;0.30;;;;;;;8.76;100.00;97537.31;6097619;19;20011;-72
2023/12/26 03:39:17;;;;;;;0.40;0.40;;;;;;;8.73;100.00;97527.06;6098877;19;20010;-72
2023/12/26 03:41:17;;;;;;;1.55;0.30;;;;;;;8.78;100.00;97528.69;6097923;19;20617;-72
2023/12/26 03:43:17;;;;;;;1.05;0.50;;;;;;;8.79;100.00;97546.81;6098693;19;20007;-72
2023/12/26 03:45:18;;;;;;;0.30;0.30;;;;;;;8.75;100.00;97541.25;6097917;19;20315;-72
2023/12/26 03:47:18;;;;;;;0.30;0.30;;;;;;;8.73;100.00;97516.81;6098006;19;20006;-72
2023/12/26 03:49:18;;;;;;;0.40;0.40;;;;;;;8.70;100.00;97506.59;6094753;19;20030;-72
2023/12/26 03:51:19;;;;;;;0.30;0.30;;;;;;;8.68;100.00;97524.69;6090076;19;20003;-72
2023/12/26 03:53:19;;;;;;;0.30;0.30;;;;;;;8.63;100.00;97516.81;6090622;19;20466;-72
2023/12/26 03:55:19;;;;;;;0.30;0.30;;;;;;;8.61;100.00;97524.69;6090627;19;20017;-72
2023/12/26 03:57:20;;;;;;;0.30;0.30;;;;;;;8.66;100.00;97504.97;6090440;19;20066;-72
2023/12/26 03:59:20;;;;;;;0.30;0.30;;;;;;;8.66;100.00;97518.78;6091088;19;20003;-72
2023/12/26 04:01:21;;;;;;;0.30;0.30;;;;;;;8.72;100.00;97514.47;6095994;19;20390;-72
2023/12/26 04:03:21;;;;;;;0.30;0.30;;;;;;;8.69;100.00;97516.03;6096522;19;20027;-72
2023/12/26 04:05:22;;;;;;;0.30;0.30;;;;;;;8.75;100.00;97521.16;6096585;19;20007;-72
2023/12/26 04:07:22;;;;;;;0.30;0.30;;;;;;;8.71;100.00;97504.63;6095736;19;20079;-72
2023/12/26 04:09:23;;;;;;;0.40;0.40;;;;;;;8.69;100.00;97515.25;6096012;19;20019;-72
2023/12/26 04:11:23;;;;;;;0.30;0.30;;;;;;;8.64;100.00;97501.84;6095214;19;20028;-72
2023/12/26 04:13:23;;;;;;;0.30;0.30;;;;;;;8.71;100.00;97508.16;6096344;19;20007;-72
2023/12/26 04:15:27;;;;;;;0.30;0.30;;;;;;;8.70;100.00;97503.03;6096498;19;20006;-72
2023/12/26 04:17:27;;;;;;;0.38;0.38;;;;;;;8.67;100.00;97509.31;6095387;19;20014;-72
2023/12/26 04:19:27;;;;;;;0.30;0.30;;;;;;;8.66;100.00;97499.47;6095726;19;20025;-72
2023/12/26 04:21:28;;;;;;;0.30;0.30;;;;;;;8.62;100.00;97506.94;6094839;19;20354;-72
2023/12/26 04:23:28;;;;;;;0.40;0.40;;;;;;;8.55;100.00;97495.91;6096717;19;20022;-72
2023/12/26 04:25:28;;;;;;;0.30;0.30;;;;;;;8.56;100.00;97501.00;6095641;19;20015;-72
2023/12/26 04:27:29;;;;;;;0.30;0.30;;;;;;;8.59;100.00;97502.97;6095477;19;20025;-72
2023/12/26 04:29:30;;;;;;;0.40;0.40;;;;;;;8.60;100.00;97503.78;6096035;19;20411;-72
2023/12/26 04:31:31;;;;;;;0.30;0.30;;;;;;;8.56;100.00;97497.47;6094317;19;20322;-72
2023/12/26 04:33:31;;;;;;;0.30;0.30;;;;;;;8.57;100.00;97510.88;6093404;19;20350;-72
2023/12/26 04:35:31;;;;;;;0.40;0.40;;;;;;;8.58;100.00;97498.66;6095261;19;20006;-72
2023/12/26 04:37:32;;;;;;;0.30;0.30;;;;;;;8.59;100.00;97508.50;6095677;19;20010;-72
2023/12/26 04:39:32;;;;;;;0.55;0.30;;;;;;;8.64;100.00;97508.13;6095620;19;20010;-72
2023/12/26 04:41:32;;;;;;;0.30;0.30;;;;;;;8.63;100.00;97498.28;6094665;19;20340;-72
2023/12/26 04:43:33;;;;;;;0.47;0.40;;;;;;;8.67;100.00;97503.81;6094746;19;20525;-72
2023/12/26 04:45:35;;;;;;;0.40;0.40;;;;;;;8.71;100.00;97502.66;6093660;19;20006;-72
2023/12/26 04:47:35;;;;;;;0.40;0.40;;;;;;;8.67;100.00;97504.59;6094570;19;19999;-72
2023/12/26 04:49:36;;;;;;;0.40;0.40;;;;;;;8.65;100.00;97515.22;6097063;19;20038;-72
2023/12/26 04:51:36;;;;;;;0.40;0.40;;;;;;;8.64;100.00;97499.06;6101452;19;20022;-72
2023/12/26 04:53:36;;;;;;;0.38;0.38;;;;;;;8.61;100.00;97489.63;6103366;19;20146;-72
2023/12/26 04:55:37;;;;;;;0.38;0.38;;;;;;;8.59;100.00;97507.72;6102865;19;20009;-72
2023/12/26 04:57:37;;;;;;;0.60;0.60;;;;;;;8.61;100.00;97514.44;6102700;19;20007;-72
2023/12/26 04:59:38;;;;;;;0.40;0.40;;;;;;;8.57;100.00;97513.63;6102130;19;20011;-72
2023/12/26 05:01:42;;;;;;;0.30;0.30;;;;;;;8.60;100.00;97509.28;6102214;19;20014;-72
2023/12/26 05:03:44;;;;;;;0.30;0.30;;;;;;;8.58;100.00;97531.75;6103339;19;20333;-72
2023/12/26 05:05:44;;;;;;;0.77;0.50;;;;;;;8.56;100.00;97525.03;6102156;19;20011;-72
2023/12/26 05:07:44;;;;;;;0.40;0.40;;;;;;;8.60;100.00;97532.13;6102647;19;20370;-72
2023/12/26 05:09:45;;;;;;;0.35;0.35;;;;;;;8.57;100.00;97532.91;6103121;19;20015;-72
2023/12/26 05:11:45;;;;;;;0.50;0.50;;;;;;;8.54;100.00;97550.25;6097370;19;20010;-72
2023/12/26 05:13:45;;;;;;;0.40;0.40;;;;;;;8.61;100.00;97553.03;6102660;19;20010;-72
2023/12/26 05:15:46;;;;;;;0.30;0.30;;;;;;;8.62;100.00;97549.09;6102004;19;20010;-72
2023/12/26 05:17:47;;;;;;;0.40;0.40;;;;;;;8.66;100.00;97555.41;6103094;19;20455;-72
2023/12/26 05:19:47;;;;;;;0.40;0.40;;;;;;;8.62;100.00;97548.31;6102252;19;20014;-72
2023/12/26 05:21:47;;;;;;;0.40;0.40;;;;;;;8.59;100.00;97560.09;6100964;19;20003;-72
2023/12/26 05:23:48;;;;;;;0.43;0.43;;;;;;;8.54;100.00;97566.78;6101912;19;20078;-72
2023/12/26 05:25:48;;;;;;;0.40;0.40;;;;;;;8.53;100.00;97569.94;6101285;19;20010;-72
2023/12/26 05:27:48;;;;;;;0.52;0.50;;;;;;;8.51;100.00;97577.78;6101626;19;20007;-72
2023/12/26 05:29:49;;;;;;;0.40;0.40;;;;;;;8.57;100.00;97590.03;6102979;19;20003;-72
2023/12/26 05:31:49;;;;;;;1.75;0.50;;;;;;;8.55;100.00;97578.59;6101017;19;20074;-72
2023/12/26 05:33:49;;;;;;;2.05;0.60;;;;;;;8.55;100.00;97581.34;6101993;19;20240;-72
2023/12/26 05:35:50;;;;;;;0.50;0.50;;;;;;;8.52;100.00;97585.66;6100592;19;20007;-72
2023/12/26 05:37:50;;;;;;;1.25;0.50;;;;;;;8.50;100.00;97595.50;6102370;19;20329;-72
2023/12/26 05:39:50;;;;;;;1.48;0.90;;;;;;;8.47;100.00;97593.53;6102296;19;20007;-72
2023/12/26 05:41:51;;;;;;;0.57;0.52;;;;;;;8.47;100.00;97585.25;6100815;19;20321;-72
2023/12/26 05:43:51;;;;;;;0.60;0.60;;;;;;;8.41;100.00;97584.81;6102137;19;20006;-72
2023/12/26 05:45:52;;;;;;;1.67;0.50;;;;;;;8.38;100.00;97580.88;6100689;19;20011;-72
2023/12/26 05:47:52;;;;;;;1.90;0.60;;;;;;;8.44;100.00;97592.34;6101414;19;20006;-72
2023/12/26 05:49:57;;;;;;;1.00;0.50;;;;;;;8.36;100.00;97597.03;6102089;19;20031;-72
2023/12/26 05:51:57;;;;;;;0.60;0.60;;;;;;;8.33;100.00;97603.25;6101169;19;20033;-72
2023/12/26 05:53:58;;;;;;;0.65;0.55;;;;;;;8.32;100.00;97589.84;6101045;19;20014;-72
2023/12/26 05:55:58;;;;;;;0.60;0.60;;;;;;;8.29;100.00;97601.66;6101881;19;20015;-72
2023/12/26 05:57:58;;;;;;;1.40;0.60;;;;;;;8.29;100.00;97596.94;6102381;19;20474;-72
2023/12/26 05:59:59;;;;;;;1.98;0.60;;;;;;;8.32;100.00;97596.16;6101249;19;20011;-72
2023/12/26 06:01:59;;;;;;;0.70;0.65;;;;;;;8.28;100.00;97600.88;6099773;19;20030;-72
2023/12/26 06:03:59;;;;;;;1.42;0.60;;;;;;;8.23;100.00;97598.47;6101188;19;20343;-72
2023/12/26 06:06:00;;;;;;;0.50;0.50;;;;;;;8.24;100.00;97619.34;6099524;19;20025;-72
2023/12/26 06:08:00;;;;;;;1.17;0.60;;;;;;;8.22;100.00;97610.66;6097472;19;20007;-72
2023/12/26 06:10:01;;;;;;;1.15;0.60;;;;;;;8.20;100.00;97601.22;6101571;19;20011;-72
2023/12/26 06:12:01;;;;;;;0.95;0.70;;;;;;;8.30;100.00;97606.00;6098966;19;20014;-72
2023/12/26 06:14:02;;;;;;;0.98;0.68;;;;;;;8.29;100.00;97599.69;6099703;19;20002;-72
2023/12/26 06:16:03;;;;;;;1.30;0.60;;;;;;;8.27;100.00;97595.72;6099411;19;20006;-72
2023/12/26 06:18:03;;;;;;;1.90;0.60;;;;;;;8.20;100.00;97610.25;6100804;19;20046;-72
2023/12/26 06:20:04;;;;;;;1.90;0.80;;;;;;;8.16;100.00;97601.16;6100945;19;20014;-72
2023/12/26 06:22:05;;;;;;;0.70;0.70;;;;;;;8.24;100.00;97621.31;6099300;19;20019;-72
2023/12/26 06:24:05;;;;;;;1.33;0.70;;;;;;;8.31;100.00;97621.34;6099489;19;19999;-72
2023/12/26 06:26:07;;;;;;;0.60;0.60;;;;;;;8.38;100.00;97608.44;6099977;19;20006;-72
2023/12/26 06:28:07;;;;;;;1.48;0.57;;;;;;;8.29;100.00;97621.75;6100020;19;20100;-72
2023/12/26 06:30:10;;;;;;;1.55;0.77;;;;;;;8.34;100.00;97642.63;6100934;19;19999;-72
2023/12/26 06:32:10;;;;;;;1.67;0.93;;;;;;;8.28;100.00;97633.94;6099675;19;20003;-72
2023/12/26 06:34:11;;;;;;;1.70;0.70;;;;;;;8.32;100.00;97633.97;6100515;19;20025;-72
2023/12/26 06:36:11;;;;;;;1.85;0.70;;;;;;;8.27;100.00;97634.31;6100466;19;20006;-72
2023/12/26 06:38:12;;;;;;;0.73;0.70;;;;;;;8.28;100.00;97653.22;6100811;19;20006;-72
2023/12/26 06:40:12;;;;;;;1.33;0.70;;;;;;;8.25;100.00;97642.97;6101398;19;19998;-72
2023/12/26 06:42:13;;;;;;;3.30;0.70;;;;;;;8.26;100.00;97657.53;6099798;19;20406;-72
2023/12/26 06:44:13;;;;;;;4.03;1.45;;;;;;;8.21;100.00;97655.94;6098295;19;19999;-72
2023/12/26 06:46:14;;;;;;;2.80;1.05;;;;;;;8.22;100.00;97652.00;6098635;19;20321;-72
2023/12/26 06:48:15;;;;;;;1.40;0.90;;;;;;;8.19;100.00;97638.97;6100280;19;19999;-72
2023/12/26 06:50:15;;;;;;;2.85;0.88;;;;;;;8.15;100.00;97654.69;6099677;19;20032;-72
2023/12/26 06:52:16;;;;;;;1.77;0.80;;;;;;;8.14;100.00;97658.63;6093585;19;20293;-72
2023/12/26 06:54:16;;;;;;;1.13;0.80;;;;;;;8.22;100.00;97663.03;6095966;19;20010;-72
2023/12/26 06:56:16;;;;;;;1.23;0.90;;;;;;;8.17;100.00;97666.13;6099502;19;20002;-72
2023/12/26 06:58:17;;;;;;;2.75;1.27;;;;;;;8.15;100.00;97663.75;6099316;19;20066;-72
2023/12/26 07:00:18;;;;;;;2.38;1.20;;;;;;;8.10;100.00;97669.59;6100657;19;20002;-72
2023/12/26 07:02:18;;;;;;;3.22;1.15;;;;;;;8.15;100.00;97674.78;6096939;19;19999;-72
2023/12/26 07:04:19;;;;;;;1.15;1.00;;;;;;;8.18;100.00;97689.75;6099335;19;19991;-72
2023/12/26 07:06:19;;;;;;;1.02;0.90;;;;;;;8.19;100.00;97688.56;6098627;19;20002;-72
2023/12/26 07:08:20;;;;;;;1.30;0.90;;;;;;;8.22;100.00;97687.81;6099567;19;20466;-72
2023/12/26 07:10:20;;;;;;;1.42;1.00;;;;;;;8.20;100.00;97714.19;6098987;19;20026;-72
2023/12/26 07:12:20;;;;;;;3.40;0.90;;;;;;;8.20;100.00;97701.19;6097578;19;20339;-72
2023/12/26 07:14:21;;;;;;;2.05;0.75;;;;;;;8.20;100.00;97697.66;6098191;19;20776;-72
2023/12/26 07:16:22;;;;;;;3.28;1.33;;;;;;;8.12;100.00;97691.28;6097029;19;20068;-72
2023/12/26 07:18:22;;;;;;;1.55;0.90;;;;;;;8.16;100.00;97703.91;6099016;19;20002;-72
2023/12/26 07:20:22;;;;;;;1.25;0.70;;;;;;;8.14;100.00;97705.47;6099319;19;19994;-72
2023/12/26 07:22:23;;;;;;;1.27;0.80;;;;;;;8.15;100.00;97723.59;6096006;19;20379;-72
2023/12/26 07:24:23;;;;;;;5.70;1.05;;;;;;;8.16;100.00;97714.94;6098049;19;20011;-72
2023/12/26 07:26:23;;;;;;;0.70;0.70;;;;;;;8.20;100.00;97714.97;6097952;19;20020;-72
2023/12/26 07:28:24;;;;;;;0.82;0.73;;;;;;;8.18;100.00;97715.34;6098620;19;20006;-72
2023/12/26 07:30:24;;;;;;;0.80;0.60;;;;;;;8.16;100.00;97717.69;6099096;19;20486;-72
2023/12/26 07:32:24;;;;;;;1.52;0.70;;;;;;;8.17;100.00;97722.03;6097345;19;20002;-72
2023/12/26 07:34:25;;;;;;;0.90;0.80;;;;;;;8.16;100.00;97736.19;6098000;19;20002;-72
2023/12/26 07:36:25;;;;;;;0.85;0.85;;;;;;;8.17;100.00;97730.28;6102895;19;20070;-72
2023/12/26 07:38:26;;;;;;;1.30;0.95;;;;;;;8.13;100.00;97725.94;6104503;19;20010;-72
2023/12/26 07:40:26;;;;;;;1.15;0.80;;;;;;;8.10;100.00;97723.91;6103604;19;20010;-72
2023/12/26 07:42:26;;;;;;;0.68;0.65;;;;;;;8.09;100.00;97736.13;6102802;19;20007;-72
2023/12/26 07:44:27;;;;;;;0.70;0.60;;;;;;;8.08;100.00;97735.31;6103238;19;20012;-72
2023/12/26 07:46:27;;;;;;;0.98;0.80;;;;;;;8.14;100.00;97744.84;6103905;19;20013;-72
2023/12/26 07:48:28;;;;;;;0.70;0.60;;;;;;;8.25;100.00;97750.44;6098831;19;20014;-72
2023/12/26 07:50:28;;;;;;;0.93;0.70;;;;;;;8.24;100.00;97757.13;6095732;19;20017;-72
2023/12/26 07:52:28;;;;;;;1.80;0.70;;;;;;;8.31;100.00;97753.63;6102908;19;20438;-72
2023/12/26 07:54:29;;;;;;;2.85;0.85;;;;;;;8.29;100.00;97769.78;6103848;19;20316;-72
2023/12/26 07:56:29;;;;;;;1.30;0.90;;;;;;;8.30;100.00;97772.16;6100162;19;20021;-72
2023/12/26 07:58:30;;;;;;;1.77;1.15;;;;;;;8.27;100.00;97781.16;6103301;19;20364;-72
2023/12/26 08:00:30;;;;;;;2.25;1.35;;;;;;;8.27;100.00;97780.38;6103765;19;20358;-72
2023/12/26 08:02:31;;;;;;;1.60;1.05;;;;;;;8.26;100.00;97784.28;6099461;19;20007;-72
2023/12/26 08:04:31;;;;;;;2.58;1.63;;;;;;;8.24;100.00;97779.16;6098753;19;20451;-72
2023/12/26 08:06:31;;;;;;;5.05;0.90;;;;;;;8.23;100.00;97788.59;6099265;19;20720;-72
2023/12/26 08:08:32;;;;;;;2.70;1.05;;;;;;;8.23;100.00;97785.84;6099448;19;20071;-72
2023/12/26 08:10:32;;;;;;;1.20;0.82;;;;;;;8.27;100.00;97800.44;6102803;19;20025;-72
2023/12/26 08:12:33;;;;;;;1.20;0.90;;;;;;;8.35;100.00;97798.59;6098589;19;20002;-72
2023/12/26 08:14:33;;;;;;;1.42;0.90;;;;;;;8.33;100.00;97804.44;6098795;19;20014;-72
2023/12/26 08:16:33;;;;;;;1.73;1.00;;;;;;;8.40;100.00;97801.00;6095297;19;20010;-72
2023/12/26 08:18:34;;;;;;;2.13;1.38;;;;;;;8.40;100.00;97804.56;6101830;19;20710;-72
2023/12/26 08:20:37;;;;;;;1.08;0.98;;;;;;;8.46;100.00;97810.50;6103002;19;20085;-72
2023/12/26 08:22:37;;;;;;;1.90;0.80;;;;;;;8.50;100.00;97802.28;6101926;19;20006;-72
2023/12/26 08:24:37;;;;;;;1.13;0.70;;;;;;;8.50;100.00;97805.81;6103109;19;20032;-72
2023/12/26 08:26:38;;;;;;;1.45;0.80;;;;;;;8.50;100.00;97811.31;6104137;19;20649;-72
2023/12/26 08:28:38;;;;;;;1.20;1.10;;;;;;;8.51;100.00;97814.88;6103572;19;20014;-72
2023/12/26 08:30:39;;;;;;;2.35;1.08;;;;;;;8.49;100.00;97825.50;6102363;19;20010;-72
2023/12/26 08:32:39;;;;;;;2.22;0.90;;;;;;;8.54;100.00;97830.69;6101507;19;20014;-72
2023/12/26 08:34:44;;;;;;;1.17;1.08;;;;;;;8.56;100.00;97828.31;6103248;19;20037;-72
2023/12/26 08:36:44;;;;;;;2.63;1.08;;;;;;;8.51;100.00;97826.69;6102374;19;20038;-72
2023/12/26 08:38:44;;;;;;;1.45;0.90;;;;;;;8.55;100.00;97827.53;6102200;19;19999;-72
2023/12/26 08:40:45;;;;;;;3.20;0.98;;;;;;;8.52;100.00;97833.00;6101437;19;20011;-72
2023/12/26 08:42:45;;;;;;;1.10;0.80;;;;;;;8.56;100.00;97836.59;6047926;19;20094;-72
2023/12/26 08:44:46;;;;;;;1.05;0.90;;;;;;;8.48;100.00;97844.00;6101823;19;20362;-72
2023/12/26 08:46:46;;;;;;;1.73;0.98;;;;;;;8.50;100.00;97860.16;6101658;19;20628;-72
2023/12/26 08:48:47;;;;;;;2.45;0.90;;;;;;;8.46;100.00;97856.59;6101031;19;20227;-72
2023/12/26 08:50:48;;;;;;;1.75;0.90;;;;;;;8.50;100.00;97844.41;6094739;19;20010;-72
2023/12/26 08:52:48;;;;;;;0.80;0.70;;;;;;;8.54;100.00;97856.28;6094659;19;20025;-72
2023/12/26 08:54:48;;;;;;;1.13;0.80;;;;;;;8.58;100.00;97870.88;6095352;19;20007;-72
2023/12/26 08:56:49;;;;;;;1.90;0.93;;;;;;;8.61;100.00;97866.59;6094705;19;20458;-73
2023/12/26 08:58:49;;;;;;;1.27;1.00;;;;;;;8.66;100.00;97866.22;6095690;19;20042;-72
2023/12/26 09:00:49;;;;;;;1.42;0.88;;;;;;;8.68;100.00;97872.16;6095432;19;20833;-72
2023/12/26 09:02:50;;;;;;;2.28;1.10;;;;;;;8.63;100.00;97887.09;6088697;19;20006;-72
2023/12/26 09:04:50;;;;;;;1.45;0.88;;;;;;;8.65;100.00;97881.97;6088462;19;20491;-72
2023/12/26 09:06:53;;;;;;;1.63;1.02;;;;;;;8.71;100.00;97887.94;6088807;19;20379;-72
2023/12/26 09:08:53;;;;;;;2.38;1.20;;;;;;;8.77;100.00;97893.91;6089448;19;19995;-72
2023/12/26 09:10:54;;;;;;;4.82;2.70;;;;;;;8.82;100.00;97885.28;6088365;19;20002;-72
2023/12/26 09:12:54;;;;;;;3.47;2.15;;;;;;;8.80;100.00;97904.97;6087311;19;19994;-72
2023/12/26 09:14:54;;;;;;;2.40;1.35;;;;;;;8.83;100.00;97893.16;6088845;19;19998;-73
2023/12/26 09:16:55;;;;;;;2.35;1.40;;;;;;;8.90;100.00;97892.44;6088384;19;20002;-72
2023/12/26 09:18:55;;;;;;;2.15;1.33;;;;;;;8.91;100.00;97902.31;6088012;19;20002;-72
2023/12/26 09:20:55;;;;;;;2.15;1.05;;;;;;;8.91;100.00;97924.38;6089016;19;20300;-72
2023/12/26 09:22:56;;;;;;;5.38;1.35;;;;;;;8.92;100.00;97926.75;6087840;19;20010;-72
2023/12/26 09:24:56;;;;;;;7.43;3.60;;;;;;;9.00;100.00;97917.38;6088503;19;20491;-72
2023/12/26 09:26:57;;;;;;;28.50;11.85;;;;;;;8.98;100.00;97918.94;6085443;19;20269;-72
2023/12/26 09:28:57;;;;;;;3.95;2.33;;;;;;;8.96;100.00;97924.03;6087575;19;20003;-72